createdAt,value
2018-10-09T00:01:03.516Z,10.50
2018-10-09T00:03:32.786Z,10.50
2018-10-09T00:06:01.537Z,10.50
2018-10-09T00:08:30.357Z,10.60
2018-10-09T00:10:59.266Z,10.50
2018-10-09T00:13:28.398Z,10.50
2018-10-09T00:15:56.981Z,10.50
2018-10-09T00:18:25.801Z,10.50
2018-10-09T00:20:54.378Z,10.40
2018-10-09T00:23:23.348Z,10.40
2018-10-09T00:25:51.932Z,10.40
2018-10-09T00:28:21.992Z,10.50
2018-10-09T00:30:50.887Z,10.40
2018-10-09T00:33:19.900Z,10.40
2018-10-09T00:35:48.397Z,10.40
2018-10-09T00:38:16.993Z,10.40
2018-10-09T00:40:45.943Z,10.40
2018-10-09T00:43:14.568Z,10.40
2018-10-09T00:45:43.141Z,10.40
2018-10-09T00:48:11.972Z,10.40
2018-10-09T00:50:40.529Z,10.40
2018-10-09T00:53:09.331Z,10.40
2018-10-09T00:55:37.908Z,10.40
2018-10-09T00:58:07.012Z,10.40
2018-10-09T01:00:35.557Z,10.40
2018-10-09T01:03:04.069Z,10.40
2018-10-09T01:05:32.905Z,10.40
2018-10-09T01:08:01.592Z,10.40
2018-10-09T01:10:30.176Z,10.30
2018-10-09T01:12:58.705Z,10.40
2018-10-09T01:15:27.253Z,10.40
2018-10-09T01:17:55.696Z,10.40
2018-10-09T01:20:31.788Z,10.40
2018-10-09T01:23:01.528Z,10.40
2018-10-09T01:25:30.208Z,10.30
2018-10-09T01:27:58.762Z,10.30
2018-10-09T01:30:27.186Z,10.30
2018-10-09T01:32:55.862Z,10.30
2018-10-09T01:35:24.488Z,10.30
2018-10-09T01:37:53.116Z,10.30
2018-10-09T01:40:21.586Z,10.30
2018-10-09T01:42:50.031Z,10.30
2018-10-09T01:45:18.560Z,10.30
2018-10-09T01:47:47.245Z,10.30
2018-10-09T01:50:15.684Z,10.30
2018-10-09T01:52:44.584Z,10.20
2018-10-09T01:55:13.052Z,10.30
2018-10-09T01:57:41.838Z,10.30
2018-10-09T02:00:11.211Z,10.30
2018-10-09T02:02:41.227Z,10.30
2018-10-09T02:05:09.797Z,10.30
2018-10-09T02:07:38.309Z,10.30
2018-10-09T02:10:06.959Z,10.30
2018-10-09T02:12:35.358Z,10.30
2018-10-09T02:15:04.076Z,10.30
2018-10-09T02:17:32.576Z,10.30
2018-10-09T02:20:01.275Z,10.30
2018-10-09T02:22:29.738Z,10.30
2018-10-09T02:24:58.440Z,10.30
2018-10-09T02:27:26.879Z,10.30
2018-10-09T02:29:55.650Z,10.30
2018-10-09T02:32:24.092Z,10.30
2018-10-09T02:34:52.576Z,10.30
2018-10-09T02:37:21.452Z,10.30
2018-10-09T02:39:50.163Z,10.20
2018-10-09T02:42:18.626Z,10.20
2018-10-09T02:44:47.540Z,10.30
2018-10-09T02:47:16.222Z,10.20
2018-10-09T02:49:45.347Z,10.20
2018-10-09T02:52:14.097Z,10.20
2018-10-09T02:54:42.524Z,10.20
2018-10-09T02:57:10.953Z,10.20
2018-10-09T02:59:39.481Z,10.20
2018-10-09T03:02:08.123Z,10.20
2018-10-09T03:04:36.880Z,10.20
2018-10-09T03:07:05.594Z,10.20
2018-10-09T03:09:34.035Z,10.20
2018-10-09T03:12:02.492Z,10.20
2018-10-09T03:14:31.585Z,10.20
2018-10-09T03:17:00.311Z,10.20
2018-10-09T03:19:29.117Z,10.10
2018-10-09T03:21:57.895Z,10.10
2018-10-09T03:24:26.994Z,10.10
2018-10-09T03:26:55.682Z,10.10
2018-10-09T03:29:24.361Z,10.00
2018-10-09T03:31:52.874Z,10.10
2018-10-09T03:34:21.333Z,10.10
2018-10-09T03:36:49.888Z,10.10
2018-10-09T03:39:18.399Z,10.10
2018-10-09T03:41:47.114Z,10.10
2018-10-09T03:44:15.568Z,10.10
2018-10-09T03:46:44.065Z,10.10
2018-10-09T03:49:12.672Z,10.00
2018-10-09T03:51:41.379Z,10.00
2018-10-09T03:54:09.868Z,10.10
2018-10-09T03:56:38.341Z,10.10
2018-10-09T03:59:06.956Z,10.00
2018-10-09T04:01:35.419Z,10.00
2018-10-09T04:04:04.390Z,10.00
2018-10-09T04:06:32.885Z,10.00
2018-10-09T04:09:01.422Z,10.10
2018-10-09T04:11:29.838Z,10.10
2018-10-09T04:13:58.353Z,10.00
2018-10-09T04:16:26.829Z,10.10
2018-10-09T04:18:55.235Z,10.10
2018-10-09T04:21:23.657Z,10.10
2018-10-09T04:23:52.080Z,10.10
2018-10-09T04:26:20.772Z,10.10
2018-10-09T04:28:49.467Z,10.10
2018-10-09T04:31:18.177Z,10.10
2018-10-09T04:33:46.686Z,10.10
2018-10-09T04:36:15.201Z,10.10
2018-10-09T04:38:43.901Z,10.10
2018-10-09T04:41:12.396Z,10.20
2018-10-09T04:43:40.889Z,10.20
2018-10-09T04:46:09.321Z,10.20
2018-10-09T04:48:38.259Z,10.10
2018-10-09T04:51:06.956Z,10.20
2018-10-09T04:53:35.482Z,10.20
2018-10-09T04:56:03.934Z,10.10
2018-10-09T04:58:32.632Z,10.10
2018-10-09T05:01:01.115Z,10.10
2018-10-09T05:03:29.839Z,10.10
2018-10-09T05:05:58.438Z,10.10
2018-10-09T05:08:26.868Z,10.10
2018-10-09T05:10:55.347Z,10.20
2018-10-09T05:13:23.787Z,10.20
2018-10-09T05:15:52.313Z,10.10
2018-10-09T05:18:21.269Z,10.10
2018-10-09T05:20:49.946Z,10.10
2018-10-09T05:23:18.454Z,10.10
2018-10-09T05:25:47.103Z,10.10
2018-10-09T05:28:15.796Z,10.10
2018-10-09T05:30:44.525Z,10.10
2018-10-09T05:33:12.967Z,10.10
2018-10-09T05:35:41.572Z,10.10
2018-10-09T05:38:10.304Z,10.10
2018-10-09T05:40:38.773Z,10.20
2018-10-09T05:43:07.573Z,10.20
2018-10-09T05:45:40.085Z,10.20
2018-10-09T05:48:09.821Z,10.20
2018-10-09T05:50:38.550Z,10.20
2018-10-09T05:53:07.114Z,10.20
2018-10-09T05:55:36.277Z,10.20
2018-10-09T05:58:04.759Z,10.30
2018-10-09T06:00:33.603Z,10.30
2018-10-09T06:03:02.399Z,10.30
2018-10-09T06:05:31.139Z,10.30
2018-10-09T06:07:59.829Z,10.30
2018-10-09T06:10:28.744Z,10.30
2018-10-09T06:12:57.256Z,10.30
2018-10-09T06:15:25.790Z,10.30
2018-10-09T06:17:54.267Z,10.30
2018-10-09T06:20:23.101Z,10.30
2018-10-09T06:22:53.542Z,10.30
2018-10-09T06:25:22.045Z,10.40
2018-10-09T06:27:50.616Z,10.40
2018-10-09T06:30:18.988Z,10.40
2018-10-09T06:32:47.684Z,10.40
2018-10-09T06:35:16.192Z,10.40
2018-10-09T06:37:44.666Z,10.40
2018-10-09T06:40:13.463Z,10.40
2018-10-09T06:42:41.928Z,10.40
2018-10-09T06:45:10.646Z,10.40
2018-10-09T06:47:39.305Z,10.40
2018-10-09T06:50:07.720Z,10.40
2018-10-09T06:52:36.212Z,10.40
2018-10-09T06:55:04.837Z,10.40
2018-10-09T06:57:33.625Z,10.40
2018-10-09T07:00:02.106Z,10.40
2018-10-09T07:02:30.580Z,10.40
2018-10-09T07:04:59.334Z,10.40
2018-10-09T07:07:28.070Z,10.40
2018-10-09T07:09:57.042Z,10.40
2018-10-09T07:12:26.829Z,10.40
2018-10-09T07:14:55.526Z,10.40
2018-10-09T07:17:23.967Z,10.50
2018-10-09T07:19:52.374Z,10.40
2018-10-09T07:22:21.026Z,10.40
2018-10-09T07:24:50.120Z,10.50
2018-10-09T07:27:18.564Z,10.50
2018-10-09T07:29:50.585Z,10.50
2018-10-09T07:32:19.277Z,10.50
2018-10-09T07:34:47.776Z,10.60
2018-10-09T07:37:16.232Z,10.70
2018-10-09T07:39:44.748Z,10.70
2018-10-09T07:42:13.398Z,10.80
2018-10-09T07:44:42.468Z,10.80
2018-10-09T07:47:11.106Z,10.90
2018-10-09T07:49:40.052Z,11.00
2018-10-09T07:52:08.873Z,11.00
2018-10-09T07:54:37.604Z,11.10
2018-10-09T07:57:06.211Z,11.10
2018-10-09T07:59:34.636Z,11.20
2018-10-09T08:02:03.480Z,11.20
2018-10-09T08:04:31.983Z,11.20
2018-10-09T08:07:01.030Z,11.20
2018-10-09T08:09:29.732Z,11.20
2018-10-09T08:11:58.301Z,11.30
2018-10-09T08:14:26.884Z,11.40
2018-10-09T08:16:55.354Z,11.40
2018-10-09T08:19:24.065Z,11.50
2018-10-09T08:21:52.587Z,11.50
2018-10-09T08:24:21.100Z,11.60
2018-10-09T08:26:49.557Z,11.70
2018-10-09T08:29:18.310Z,11.70
2018-10-09T08:31:46.797Z,11.70
2018-10-09T08:34:15.300Z,11.70
2018-10-09T08:36:44.630Z,11.70
2018-10-09T08:39:13.055Z,11.80
2018-10-09T08:41:41.794Z,11.80
2018-10-09T08:44:10.559Z,11.80
2018-10-09T08:46:39.456Z,11.90
2018-10-09T08:49:08.242Z,11.90
2018-10-09T08:51:36.680Z,11.90
2018-10-09T08:54:05.497Z,12.00
2018-10-09T08:56:33.950Z,12.00
2018-10-09T08:59:02.609Z,12.00
2018-10-09T09:01:31.441Z,12.10
2018-10-09T09:04:00.021Z,12.10
2018-10-09T09:06:28.457Z,12.20
2018-10-09T09:08:56.971Z,12.20
2018-10-09T09:11:25.602Z,12.30
2018-10-09T09:13:54.492Z,12.30
2018-10-09T09:16:22.914Z,12.30
2018-10-09T09:18:51.382Z,12.30
2018-10-09T09:21:20.221Z,12.40
2018-10-09T09:23:49.035Z,12.50
2018-10-09T09:26:18.455Z,12.50
2018-10-09T09:28:46.898Z,12.50
2018-10-09T09:31:15.597Z,12.60
2018-10-09T09:33:44.430Z,12.60
2018-10-09T09:36:12.921Z,12.70
2018-10-09T09:38:41.360Z,12.70
2018-10-09T09:41:10.222Z,12.70
2018-10-09T09:43:38.716Z,12.70
2018-10-09T09:46:07.942Z,12.80
2018-10-09T09:48:36.642Z,12.80
2018-10-09T09:51:05.326Z,12.80
2018-10-09T09:53:33.985Z,12.90
2018-10-09T09:56:02.495Z,12.90
2018-10-09T09:58:31.018Z,12.90
2018-10-09T10:01:04.705Z,12.90
2018-10-09T10:03:33.292Z,13.00
2018-10-09T10:06:01.792Z,13.00
2018-10-09T10:08:30.228Z,13.00
2018-10-09T10:10:58.737Z,13.00
2018-10-09T10:13:27.473Z,13.10
2018-10-09T10:15:56.043Z,13.20
2018-10-09T10:18:24.696Z,13.20
2018-10-09T10:20:53.687Z,13.20
2018-10-09T10:23:22.151Z,13.30
2018-10-09T10:25:51.011Z,13.30
2018-10-09T10:28:20.102Z,13.40
2018-10-09T10:30:49.339Z,13.40
2018-10-09T10:33:18.262Z,13.50
2018-10-09T10:35:46.756Z,13.50
2018-10-09T10:38:15.182Z,13.50
2018-10-09T10:40:43.734Z,13.50
2018-10-09T10:43:12.229Z,13.60
2018-10-09T10:45:40.677Z,13.70
2018-10-09T10:48:09.193Z,13.70
2018-10-09T10:50:37.662Z,13.70
2018-10-09T10:53:06.146Z,13.70
2018-10-09T10:55:34.656Z,13.80
2018-10-09T10:58:03.313Z,13.80
2018-10-09T11:00:32.271Z,13.80
2018-10-09T11:03:00.794Z,13.90
2018-10-09T11:05:29.195Z,13.90
2018-10-09T11:07:58.714Z,14.00
2018-10-09T11:10:28.053Z,14.00
2018-10-09T11:12:56.500Z,14.00
2018-10-09T11:15:25.091Z,14.10
2018-10-09T11:17:53.844Z,14.10
2018-10-09T11:20:22.401Z,14.10
2018-10-09T11:22:51.081Z,14.20
2018-10-09T11:25:19.505Z,14.20
2018-10-09T11:27:48.041Z,14.20
2018-10-09T11:30:16.909Z,14.20
2018-10-09T11:32:45.756Z,14.30
2018-10-09T11:35:14.512Z,14.30
2018-10-09T11:37:44.176Z,14.40
2018-10-09T11:40:12.746Z,14.40
2018-10-09T11:42:41.487Z,14.40
2018-10-09T11:45:10.077Z,14.40
2018-10-09T11:47:38.578Z,14.40
2018-10-09T11:50:08.791Z,14.50
2018-10-09T11:52:37.313Z,14.40
2018-10-09T11:55:05.925Z,14.50
2018-10-09T11:57:34.538Z,14.50
2018-10-09T12:00:03.334Z,14.50
2018-10-09T12:02:33.136Z,14.50
2018-10-09T12:05:01.826Z,14.60
2018-10-09T12:07:30.236Z,14.60
2018-10-09T12:09:58.809Z,14.70
2018-10-09T12:12:27.426Z,14.80
2018-10-09T12:14:56.237Z,14.80
2018-10-09T12:17:25.565Z,14.90
2018-10-09T12:19:54.116Z,15.00
2018-10-09T12:22:22.606Z,15.00
2018-10-09T12:24:51.138Z,15.00
2018-10-09T12:27:19.672Z,15.10
2018-10-09T12:29:49.210Z,15.10
2018-10-09T12:32:18.193Z,15.10
2018-10-09T12:34:46.657Z,15.10
2018-10-09T12:37:15.263Z,15.10
2018-10-09T12:39:44.328Z,15.10
2018-10-09T12:42:12.961Z,15.20
2018-10-09T12:44:41.344Z,15.20
2018-10-09T12:47:09.765Z,15.20
2018-10-09T12:49:39.451Z,15.20
2018-10-09T12:52:08.781Z,15.20
2018-10-09T12:54:37.269Z,15.20
2018-10-09T12:57:05.807Z,15.20
2018-10-09T12:59:34.860Z,15.10
2018-10-09T13:02:03.430Z,15.10
2018-10-09T13:04:33.207Z,15.10
2018-10-09T13:07:02.000Z,15.20
2018-10-09T13:09:30.489Z,15.20
2018-10-09T13:11:59.751Z,15.20
2018-10-09T13:14:30.138Z,15.20
2018-10-09T13:16:59.800Z,15.20
2018-10-09T13:19:28.446Z,15.20
2018-10-09T13:21:57.111Z,15.20
2018-10-09T13:24:25.279Z,15.20
2018-10-09T13:26:53.699Z,15.20
2018-10-09T13:29:22.191Z,15.20
2018-10-09T13:31:50.836Z,15.20
2018-10-09T13:34:19.823Z,15.30
2018-10-09T13:36:48.453Z,15.30
2018-10-09T13:39:17.007Z,15.30
2018-10-09T13:41:45.422Z,15.30
2018-10-09T13:44:13.973Z,15.30
2018-10-09T13:46:42.345Z,15.30
2018-10-09T13:49:11.371Z,15.30
2018-10-09T13:51:39.955Z,15.40
2018-10-09T13:54:08.399Z,15.30
2018-10-09T13:56:37.737Z,15.30
2018-10-09T13:59:06.245Z,15.30
2018-10-09T14:01:34.705Z,15.30
2018-10-09T14:04:03.598Z,15.30
2018-10-09T14:06:32.016Z,15.40
2018-10-09T14:09:00.497Z,15.40
2018-10-09T14:11:29.134Z,15.40
2018-10-09T14:13:57.912Z,15.40
2018-10-09T14:16:26.307Z,15.40
2018-10-09T14:18:54.932Z,15.40
2018-10-09T14:21:23.493Z,15.40
2018-10-09T14:23:52.143Z,15.30
2018-10-09T14:26:20.549Z,15.30
2018-10-09T14:28:48.972Z,15.30
2018-10-09T14:31:17.474Z,15.30
2018-10-09T14:33:45.917Z,15.30
2018-10-09T14:36:14.303Z,15.30
2018-10-09T14:38:42.758Z,15.00
2018-10-09T14:41:11.357Z,15.30
2018-10-09T14:43:39.898Z,15.20
2018-10-09T14:46:08.934Z,15.20
2018-10-09T14:48:37.357Z,15.20
2018-10-09T14:51:05.960Z,15.20
2018-10-09T14:53:34.734Z,15.20
2018-10-09T14:56:03.198Z,15.10
2018-10-09T14:58:31.665Z,15.10
2018-10-09T15:01:00.089Z,15.10
2018-10-09T15:03:28.611Z,15.00
2018-10-09T15:05:57.308Z,15.00
2018-10-09T15:08:25.699Z,15.00
2018-10-09T15:10:54.148Z,15.00
2018-10-09T15:13:23.009Z,15.00
2018-10-09T15:15:51.640Z,15.00
2018-10-09T15:18:20.090Z,15.00
2018-10-09T15:20:48.502Z,15.00
2018-10-09T15:23:16.938Z,14.90
2018-10-09T15:25:45.416Z,14.90
2018-10-09T15:28:13.840Z,14.90
2018-10-09T15:30:42.273Z,14.90
2018-10-09T15:33:10.923Z,14.90
2018-10-09T15:35:39.546Z,14.90
2018-10-09T15:38:07.964Z,14.90
2018-10-09T15:40:36.486Z,14.90
2018-10-09T15:43:05.132Z,14.80
2018-10-09T15:45:33.622Z,14.80
2018-10-09T15:48:02.096Z,14.80
2018-10-09T15:50:31.558Z,14.70
2018-10-09T15:52:59.963Z,14.70
2018-10-09T15:55:28.325Z,14.70
2018-10-09T15:57:57.013Z,14.70
2018-10-09T16:00:25.662Z,14.70
2018-10-09T16:02:54.427Z,14.70
2018-10-09T16:05:22.840Z,14.70
2018-10-09T16:07:51.548Z,14.70
2018-10-09T16:10:20.441Z,14.70
2018-10-09T16:12:49.041Z,14.70
2018-10-09T16:15:17.441Z,14.70
2018-10-09T16:17:45.932Z,14.70
2018-10-09T16:20:14.476Z,14.60
2018-10-09T16:22:42.879Z,14.60
2018-10-09T16:25:11.294Z,14.60
2018-10-09T16:27:39.950Z,14.60
2018-10-09T16:30:08.425Z,14.60
2018-10-09T16:32:36.976Z,14.60
2018-10-09T16:35:05.434Z,14.50
2018-10-09T16:37:33.872Z,14.50
2018-10-09T16:40:03.358Z,14.50
2018-10-09T16:42:32.811Z,14.50
2018-10-09T16:45:02.137Z,14.50
2018-10-09T16:47:30.735Z,14.40
2018-10-09T16:49:59.079Z,14.40
2018-10-09T16:52:27.429Z,14.40
2018-10-09T16:54:56.779Z,14.40
2018-10-09T16:57:25.196Z,14.30
2018-10-09T16:59:53.579Z,14.30
2018-10-09T17:02:22.174Z,14.30
2018-10-09T17:04:50.552Z,14.30
2018-10-09T17:07:19.273Z,14.20
2018-10-09T17:09:47.677Z,14.20
2018-10-09T17:12:16.085Z,14.20
2018-10-09T17:14:44.622Z,14.10
2018-10-09T17:17:13.276Z,14.10
2018-10-09T17:19:42.011Z,14.10
2018-10-09T17:22:10.731Z,14.00
2018-10-09T17:24:39.162Z,14.00
2018-10-09T17:27:07.972Z,13.90
2018-10-09T17:29:36.673Z,13.90
2018-10-09T17:32:06.632Z,13.90
2018-10-09T17:34:36.020Z,13.90
2018-10-09T17:37:05.765Z,13.80
2018-10-09T17:39:34.439Z,13.80
2018-10-09T17:42:02.931Z,13.80
2018-10-09T17:44:34.585Z,13.80
2018-10-09T17:47:07.074Z,13.70
2018-10-09T17:49:36.168Z,13.70
2018-10-09T17:52:04.588Z,13.60
2018-10-09T17:54:33.232Z,13.60
2018-10-09T17:57:01.756Z,13.50
2018-10-09T17:59:30.160Z,13.50
2018-10-09T18:01:58.992Z,13.50
2018-10-09T18:04:27.856Z,13.50
2018-10-09T18:06:57.158Z,13.40
2018-10-09T18:09:25.631Z,13.40
2018-10-09T18:11:54.052Z,13.40
2018-10-09T18:14:22.445Z,13.30
2018-10-09T18:16:51.012Z,13.30
2018-10-09T18:19:19.578Z,13.30
2018-10-09T18:21:48.087Z,13.30
2018-10-09T18:24:17.610Z,13.20
2018-10-09T18:26:46.118Z,13.20
2018-10-09T18:29:16.896Z,13.10
2018-10-09T18:31:45.435Z,13.10
2018-10-09T18:34:14.027Z,13.10
2018-10-09T18:36:42.855Z,13.10
2018-10-09T18:39:14.178Z,13.00
2018-10-09T18:41:43.694Z,13.00
2018-10-09T18:44:12.093Z,13.00
2018-10-09T18:46:41.403Z,13.00
2018-10-09T18:49:10.373Z,12.90
2018-10-09T18:51:39.473Z,12.90
2018-10-09T18:54:08.195Z,12.90
2018-10-09T18:56:36.739Z,12.80
2018-10-09T18:59:05.286Z,12.80
2018-10-09T19:01:33.815Z,12.80
2018-10-09T19:04:02.354Z,12.80
2018-10-09T19:06:30.991Z,12.80
2018-10-09T19:08:59.667Z,12.70
2018-10-09T19:11:28.458Z,12.70
2018-10-09T19:13:57.302Z,12.70
2018-10-09T19:16:26.422Z,12.70
2018-10-09T19:18:54.923Z,12.60
2018-10-09T19:21:23.533Z,12.60
2018-10-09T19:23:52.138Z,12.60
2018-10-09T19:26:20.594Z,12.60
2018-10-09T19:28:49.159Z,12.50
2018-10-09T19:31:17.771Z,12.50
2018-10-09T19:33:46.382Z,12.50
2018-10-09T19:36:14.861Z,12.50
2018-10-09T19:38:43.459Z,12.50
2018-10-09T19:41:11.949Z,12.40
2018-10-09T19:43:40.515Z,12.40
2018-10-09T19:46:09.057Z,12.40
2018-10-09T19:48:37.802Z,12.40
2018-10-09T19:51:06.478Z,12.40
2018-10-09T19:53:34.838Z,12.30
2018-10-09T19:56:03.358Z,12.30
2018-10-09T19:58:31.949Z,12.30
2018-10-09T20:01:00.518Z,12.30
2018-10-09T20:03:28.969Z,12.30
2018-10-09T20:05:57.465Z,12.30
2018-10-09T20:08:25.958Z,12.20
2018-10-09T20:10:54.771Z,12.20
2018-10-09T20:13:23.518Z,12.20
2018-10-09T20:15:52.077Z,12.20
2018-10-09T20:18:23.302Z,12.20
2018-10-09T20:20:52.474Z,12.10
2018-10-09T20:23:21.060Z,12.20
2018-10-09T20:25:49.625Z,12.10
2018-10-09T20:28:18.449Z,12.10
2018-10-09T20:30:54.283Z,12.10
2018-10-09T20:33:28.741Z,12.10
2018-10-09T20:35:57.306Z,12.10
2018-10-09T20:38:25.977Z,12.00
2018-10-09T20:40:54.678Z,12.00
2018-10-09T20:43:23.236Z,12.00
2018-10-09T20:45:51.683Z,12.00
2018-10-09T20:48:20.124Z,11.90
2018-10-09T20:50:48.525Z,11.90
2018-10-09T20:53:17.040Z,11.90
2018-10-09T20:55:46.373Z,11.90
2018-10-09T20:58:14.858Z,11.80
2018-10-09T21:00:43.550Z,11.80
2018-10-09T21:03:12.035Z,11.80
2018-10-09T21:05:40.546Z,11.80
2018-10-09T21:08:08.927Z,11.80
2018-10-09T21:10:37.382Z,11.80
2018-10-09T21:13:06.146Z,11.70
2018-10-09T21:15:34.618Z,11.70
2018-10-09T21:18:03.145Z,11.70
2018-10-09T21:20:31.489Z,11.70
2018-10-09T21:22:59.971Z,11.60
2018-10-09T21:25:28.493Z,11.60
2018-10-09T21:27:56.973Z,11.60
2018-10-09T21:30:25.557Z,11.60
2018-10-09T21:32:54.062Z,11.60
2018-10-09T21:35:22.546Z,11.60
2018-10-09T21:37:51.036Z,11.60
2018-10-09T21:40:20.174Z,11.60
2018-10-09T21:42:48.591Z,11.60
2018-10-09T21:45:17.905Z,11.50
2018-10-09T21:47:51.657Z,11.50
2018-10-09T21:50:20.123Z,11.50
2018-10-09T21:52:48.565Z,11.50
2018-10-09T21:55:17.005Z,11.50
2018-10-09T21:57:46.153Z,11.50
2018-10-09T22:00:14.766Z,11.50
2018-10-09T22:02:43.250Z,11.50
2018-10-09T22:05:11.688Z,11.40
2018-10-09T22:07:40.214Z,11.40
2018-10-09T22:10:08.688Z,11.40
2018-10-09T22:12:37.128Z,11.40
2018-10-09T22:15:06.007Z,11.30
2018-10-09T22:17:34.505Z,11.30
2018-10-09T22:20:02.979Z,11.30
2018-10-09T22:22:31.426Z,11.30
2018-10-09T22:24:59.836Z,11.20
2018-10-09T22:27:28.309Z,11.20
2018-10-09T22:29:56.698Z,11.20
2018-10-09T22:32:25.101Z,11.20
2018-10-09T22:34:53.525Z,11.20
2018-10-09T22:37:21.900Z,11.20
2018-10-09T22:39:50.369Z,11.10
2018-10-09T22:42:18.910Z,11.10
2018-10-09T22:44:47.296Z,11.10
2018-10-09T22:47:15.703Z,11.10
2018-10-09T22:49:44.196Z,11.10
2018-10-09T22:52:12.596Z,11.00
2018-10-09T22:54:41.147Z,11.00
2018-10-09T22:57:09.592Z,11.00
2018-10-09T22:59:38.016Z,11.00
2018-10-09T23:02:06.457Z,10.90
2018-10-09T23:04:36.052Z,10.90
2018-10-09T23:07:04.458Z,10.90
2018-10-09T23:09:32.908Z,10.90
2018-10-09T23:12:01.365Z,10.90
2018-10-09T23:14:29.826Z,10.90
2018-10-09T23:16:58.264Z,10.90
2018-10-09T23:19:26.665Z,10.90
2018-10-09T23:21:55.078Z,10.90
2018-10-09T23:24:23.686Z,10.80
2018-10-09T23:26:52.354Z,10.80
2018-10-09T23:29:20.795Z,10.80
2018-10-09T23:31:49.173Z,10.80
2018-10-09T23:34:17.602Z,10.80
2018-10-09T23:36:46.038Z,10.80
2018-10-09T23:39:14.506Z,10.80
2018-10-09T23:41:42.893Z,10.80
2018-10-09T23:44:11.277Z,10.80
2018-10-09T23:46:39.730Z,10.80
2018-10-09T23:49:08.719Z,10.70
2018-10-09T23:51:37.128Z,10.70
2018-10-09T23:54:05.636Z,10.70
2018-10-09T23:56:35.113Z,10.70
2018-10-09T23:59:03.648Z,10.70
